createdAt,value
2023-06-21T00:01:41.580Z,61.60
2023-06-21T00:04:09.156Z,61.70
2023-06-21T00:06:38.632Z,61.70
2023-06-21T00:09:05.596Z,61.90
2023-06-21T00:11:33.077Z,61.50
2023-06-21T00:13:59.794Z,61.60
2023-06-21T00:16:26.626Z,61.50
2023-06-21T00:18:53.331Z,61.60
2023-06-21T00:21:20.077Z,61.40
2023-06-21T00:23:46.950Z,61.40
2023-06-21T00:26:13.952Z,61.30
2023-06-21T00:28:40.675Z,61.20
2023-06-21T00:31:11.227Z,61.00
2023-06-21T00:33:39.331Z,61.30
2023-06-21T00:36:06.228Z,61.10
2023-06-21T00:38:36.732Z,59.90
2023-06-21T00:41:07.057Z,60.80
2023-06-21T00:43:33.986Z,61.10
2023-06-21T00:46:01.713Z,60.80
2023-06-21T00:48:30.190Z,60.60
2023-06-21T00:50:58.837Z,60.50
2023-06-21T00:53:28.512Z,60.60
2023-06-21T00:55:58.983Z,60.50
2023-06-21T00:58:25.759Z,60.60
2023-06-21T01:00:52.612Z,60.60
2023-06-21T01:03:22.031Z,60.50
2023-06-21T01:05:56.887Z,60.50
2023-06-21T01:08:38.504Z,60.60
2023-06-21T01:11:20.246Z,60.60
2023-06-21T01:14:18.002Z,60.20
2023-06-21T01:16:46.998Z,60.40
2023-06-21T01:19:42.758Z,59.60
2023-06-21T01:22:46.603Z,60.00
2023-06-21T01:25:54.301Z,59.80
2023-06-21T01:28:50.128Z,60.20
2023-06-21T01:31:17.744Z,60.30
2023-06-21T01:33:46.023Z,60.40
2023-06-21T01:36:13.198Z,60.30
2023-06-21T01:38:39.923Z,59.30
2023-06-21T01:41:11.664Z,60.10
2023-06-21T01:43:38.931Z,60.20
2023-06-21T01:46:08.873Z,60.30
2023-06-21T01:48:36.676Z,60.40
2023-06-21T01:51:05.318Z,60.30
2023-06-21T01:53:33.713Z,60.20
2023-06-21T01:56:02.980Z,60.20
2023-06-21T01:58:29.905Z,60.00
2023-06-21T02:00:58.017Z,60.10
2023-06-21T02:03:25.193Z,60.10
2023-06-21T02:05:52.235Z,58.90
2023-06-21T02:08:19.994Z,60.00
2023-06-21T02:10:48.130Z,60.00
2023-06-21T02:13:15.198Z,59.90
2023-06-21T02:15:42.428Z,58.70
2023-06-21T02:18:12.089Z,59.80
2023-06-21T02:20:39.635Z,59.60
2023-06-21T02:23:06.723Z,59.60
2023-06-21T02:25:37.949Z,59.50
2023-06-21T02:28:05.485Z,59.60
2023-06-21T02:30:32.426Z,59.60
2023-06-21T02:32:59.405Z,59.50
2023-06-21T02:35:26.170Z,60.10
2023-06-21T02:37:53.091Z,59.60
2023-06-21T02:40:19.876Z,59.40
2023-06-21T02:42:46.627Z,59.50
2023-06-21T02:45:13.324Z,59.40
2023-06-21T02:47:40.041Z,59.30
2023-06-21T02:50:07.494Z,59.40
2023-06-21T02:52:34.253Z,59.50
2023-06-21T02:55:06.432Z,59.60
2023-06-21T02:57:33.231Z,59.80
2023-06-21T03:00:00.758Z,59.90
2023-06-21T03:02:36.269Z,59.70
2023-06-21T03:05:03.030Z,60.00
2023-06-21T03:07:29.701Z,59.90
2023-06-21T03:09:56.605Z,60.00
2023-06-21T03:12:23.454Z,60.00
2023-06-21T03:14:50.266Z,60.00
2023-06-21T03:17:17.031Z,59.90
2023-06-21T03:19:43.787Z,59.70
2023-06-21T03:22:10.796Z,59.90
2023-06-21T03:24:37.681Z,59.80
2023-06-21T03:27:04.851Z,59.70
2023-06-21T03:29:32.177Z,59.70
2023-06-21T03:31:59.205Z,59.60
2023-06-21T03:34:25.889Z,59.70
2023-06-21T03:36:55.919Z,59.70
2023-06-21T03:39:22.950Z,59.70
2023-06-21T03:41:49.647Z,59.70
2023-06-21T03:44:16.481Z,59.70
2023-06-21T03:46:43.729Z,59.90
2023-06-21T03:49:10.550Z,59.90
2023-06-21T03:51:37.293Z,59.70
2023-06-21T03:54:04.819Z,59.80
2023-06-21T03:56:31.550Z,59.70
2023-06-21T03:58:58.286Z,59.70
2023-06-21T04:01:25.146Z,59.70
2023-06-21T04:03:52.081Z,59.80
2023-06-21T04:06:18.897Z,59.80
2023-06-21T04:08:45.653Z,59.80
2023-06-21T04:11:12.492Z,59.70
2023-06-21T04:13:39.193Z,59.90
2023-06-21T04:16:06.030Z,59.80
2023-06-21T04:18:33.464Z,59.80
2023-06-21T04:21:00.146Z,59.70
2023-06-21T04:23:27.498Z,59.70
2023-06-21T04:25:54.286Z,59.80
2023-06-21T04:28:26.526Z,59.90
2023-06-21T04:30:53.612Z,60.00
2023-06-21T04:33:21.436Z,60.10
2023-06-21T04:43:10.440Z,60.90
2023-06-21T04:45:37.368Z,59.70
2023-06-21T04:48:05.992Z,60.50
2023-06-21T04:50:33.124Z,60.80
2023-06-21T04:53:00.823Z,60.80
2023-06-21T04:55:28.584Z,60.80
2023-06-21T04:57:55.595Z,60.10
2023-06-21T05:00:22.473Z,60.60
2023-06-21T05:05:16.907Z,60.90
2023-06-21T05:07:43.705Z,61.10
2023-06-21T05:10:11.678Z,61.10
2023-06-21T05:12:39.013Z,61.10
2023-06-21T05:15:07.099Z,61.10
2023-06-21T05:17:34.937Z,61.30
2023-06-21T05:20:05.929Z,61.40
2023-06-21T05:22:34.167Z,61.60
2023-06-21T05:25:03.624Z,61.60
2023-06-21T05:27:31.079Z,61.80
2023-06-21T05:29:57.850Z,61.70
2023-06-21T05:32:26.790Z,62.00
2023-06-21T05:34:54.414Z,61.90
2023-06-21T05:37:21.373Z,62.20
2023-06-21T05:39:48.330Z,61.90
2023-06-21T05:42:15.373Z,61.50
2023-06-21T05:44:44.146Z,61.90
2023-06-21T05:47:10.934Z,62.40
2023-06-21T05:49:37.608Z,62.40
2023-06-21T05:52:04.692Z,62.60
2023-06-21T05:54:31.468Z,62.40
2023-06-21T05:56:58.216Z,62.50
2023-06-21T05:59:24.901Z,61.90
2023-06-21T06:01:51.645Z,62.50
2023-06-21T06:04:18.454Z,63.00
2023-06-21T06:06:45.338Z,62.30
2023-06-21T06:09:12.648Z,63.20
2023-06-21T06:16:33.903Z,62.60
2023-06-21T06:19:00.677Z,62.90
2023-06-21T06:21:27.416Z,63.00
2023-06-21T06:23:54.730Z,62.40
2023-06-21T06:26:26.227Z,62.60
2023-06-21T06:28:53.933Z,63.10
2023-06-21T06:31:22.891Z,63.40
2023-06-21T06:33:49.748Z,63.20
2023-06-21T06:36:16.651Z,63.50
2023-06-21T06:38:45.855Z,63.30
2023-06-21T06:41:12.559Z,63.20
2023-06-21T06:43:39.281Z,63.30
2023-06-21T06:46:06.160Z,63.00
2023-06-21T06:48:33.013Z,63.20
2023-06-21T06:50:59.969Z,63.20
2023-06-21T06:53:26.890Z,63.20
2023-06-21T06:55:54.703Z,63.30
2023-06-21T06:58:21.952Z,63.00
2023-06-21T07:00:49.584Z,63.20
2023-06-21T07:03:16.397Z,62.70
2023-06-21T07:05:44.879Z,62.70
2023-06-21T07:08:12.519Z,62.30
2023-06-21T07:10:39.881Z,62.40
2023-06-21T07:13:07.343Z,62.40
2023-06-21T07:18:02.761Z,61.70
2023-06-21T07:20:29.977Z,62.60
2023-06-21T07:22:57.922Z,62.60
2023-06-21T07:25:24.873Z,62.60
2023-06-21T07:27:51.717Z,61.50
2023-06-21T07:30:19.247Z,61.50
2023-06-21T07:32:47.483Z,61.50
2023-06-21T07:35:15.721Z,61.10
2023-06-21T07:37:43.898Z,61.00
2023-06-21T07:40:12.293Z,61.40
2023-06-21T07:42:40.871Z,62.70
2023-06-21T07:45:09.064Z,62.00
2023-06-21T07:47:36.139Z,62.90
2023-06-21T07:50:20.343Z,63.40
2023-06-21T07:52:49.007Z,62.40
2023-06-21T07:55:15.794Z,62.30
2023-06-21T07:57:42.989Z,62.40
2023-06-21T08:00:13.534Z,62.20
2023-06-21T08:02:42.608Z,62.30
2023-06-21T08:05:09.740Z,61.60
2023-06-21T08:07:36.613Z,61.60
2023-06-21T08:10:03.642Z,61.80
2023-06-21T08:12:30.465Z,61.10
2023-06-21T08:14:57.144Z,61.10
2023-06-21T08:17:23.940Z,62.00
2023-06-21T08:19:50.703Z,62.70
2023-06-21T08:22:17.446Z,62.40
2023-06-21T08:24:44.528Z,61.90
2023-06-21T08:27:11.620Z,62.10
2023-06-21T08:29:38.397Z,62.00
2023-06-21T08:32:06.294Z,60.90
2023-06-21T08:34:33.817Z,61.10
2023-06-21T08:37:00.681Z,60.90
2023-06-21T08:39:29.286Z,60.60
2023-06-21T08:41:58.262Z,60.50
2023-06-21T08:44:26.041Z,60.80
2023-06-21T08:46:55.960Z,60.30
2023-06-21T08:49:27.239Z,60.50
2023-06-21T08:51:56.041Z,61.80
2023-06-21T08:54:28.165Z,62.00
2023-06-21T08:57:00.922Z,61.30
2023-06-21T08:59:50.948Z,61.00
2023-06-21T09:02:46.380Z,59.20
2023-06-21T09:05:28.470Z,58.90
2023-06-21T09:07:57.501Z,58.10
2023-06-21T09:10:25.397Z,58.90
2023-06-21T09:12:54.748Z,58.70
2023-06-21T09:15:22.641Z,57.40
2023-06-21T09:17:51.442Z,56.60
2023-06-21T09:20:18.825Z,56.30
2023-06-21T09:22:48.515Z,55.10
2023-06-21T09:25:15.482Z,53.90
2023-06-21T09:27:42.232Z,54.30
2023-06-21T09:30:35.248Z,54.50
2023-06-21T09:32:57.409Z,55.30
2023-06-21T09:35:24.557Z,53.90
2023-06-21T09:37:51.450Z,54.70
2023-06-21T09:40:18.163Z,54.80
2023-06-21T09:42:47.760Z,55.00
2023-06-21T09:45:19.633Z,56.30
2023-06-21T09:47:46.531Z,57.00
2023-06-21T09:50:13.787Z,55.30
2023-06-21T09:52:44.593Z,55.20
2023-06-21T09:55:15.527Z,55.10
2023-06-21T09:57:42.362Z,54.50
2023-06-21T10:00:09.788Z,54.60
2023-06-21T10:02:40.657Z,55.70
2023-06-21T10:05:17.996Z,55.00
2023-06-21T10:07:45.920Z,55.30
2023-06-21T10:10:13.815Z,55.30
2023-06-21T10:12:55.657Z,55.20
2023-06-21T10:15:24.092Z,54.00
2023-06-21T10:18:04.986Z,53.10
2023-06-21T10:20:34.260Z,55.10
2023-06-21T10:23:03.498Z,54.80
2023-06-21T10:25:31.587Z,54.30
2023-06-21T10:28:01.507Z,55.30
2023-06-21T10:30:30.313Z,55.00
2023-06-21T10:33:01.400Z,55.00
2023-06-21T10:35:34.630Z,53.30
2023-06-21T10:38:14.730Z,53.70
2023-06-21T10:40:42.564Z,53.10
2023-06-21T10:43:11.282Z,53.80
2023-06-21T10:45:40.105Z,54.70
2023-06-21T10:48:09.180Z,53.70
2023-06-21T10:50:35.980Z,52.20
2023-06-21T10:53:05.556Z,52.40
2023-06-21T10:55:33.662Z,51.80
2023-06-21T10:58:00.625Z,51.90
2023-06-21T11:00:30.104Z,52.70
2023-06-21T11:02:57.825Z,52.50
2023-06-21T11:05:26.366Z,51.30
2023-06-21T11:07:56.088Z,51.40
2023-06-21T11:10:48.875Z,50.60
2023-06-21T11:13:16.892Z,50.00
2023-06-21T11:15:47.428Z,50.30
2023-06-21T11:18:20.466Z,50.30
2023-06-21T11:20:50.150Z,51.40
2023-06-21T11:23:23.202Z,50.80
2023-06-21T11:25:54.411Z,51.90
2023-06-21T11:28:21.973Z,50.50
2023-06-21T11:31:15.839Z,51.20
2023-06-21T11:33:51.187Z,52.70
2023-06-21T11:36:22.465Z,50.40
2023-06-21T11:39:08.150Z,49.10
2023-06-21T11:41:43.420Z,49.60
2023-06-21T11:44:27.852Z,50.70
2023-06-21T11:47:06.205Z,50.40
2023-06-21T11:49:45.709Z,51.30
2023-06-21T11:52:13.753Z,50.20
2023-06-21T11:54:40.554Z,51.30
2023-06-21T11:57:08.217Z,50.70
2023-06-21T11:59:45.011Z,50.80
2023-06-21T12:02:16.417Z,51.60
2023-06-21T12:04:44.387Z,49.70
2023-06-21T12:07:11.455Z,49.40
2023-06-21T12:09:39.942Z,50.70
2023-06-21T12:12:08.112Z,48.90
2023-06-21T12:14:35.492Z,49.40
2023-06-21T12:17:02.216Z,50.40
2023-06-21T12:19:29.006Z,50.00
2023-06-21T12:22:03.426Z,49.70
2023-06-21T12:24:31.632Z,50.70
2023-06-21T12:26:58.847Z,51.00
2023-06-21T12:29:28.368Z,51.30
2023-06-21T12:31:59.030Z,52.00
2023-06-21T12:34:26.678Z,51.00
2023-06-21T12:36:56.348Z,49.90
2023-06-21T12:39:24.103Z,49.60
2023-06-21T12:41:51.291Z,48.90
2023-06-21T12:44:28.175Z,48.50
2023-06-21T12:46:55.039Z,49.20
2023-06-21T12:49:21.862Z,49.50
2023-06-21T12:51:49.416Z,50.60
2023-06-21T12:54:19.458Z,48.80
2023-06-21T12:56:49.397Z,49.60
2023-06-21T12:59:16.165Z,49.00
2023-06-21T13:01:43.519Z,50.10
2023-06-21T13:04:12.967Z,49.40
2023-06-21T13:06:40.761Z,50.50
2023-06-21T13:09:07.970Z,51.00
2023-06-21T13:11:35.411Z,52.60
2023-06-21T13:14:05.898Z,52.80
2023-06-21T13:16:33.134Z,52.70
2023-06-21T13:18:59.878Z,52.80
2023-06-21T13:21:27.111Z,53.70
2023-06-21T13:23:55.762Z,53.30
2023-06-21T13:26:24.656Z,53.20
2023-06-21T13:28:51.812Z,53.80
2023-06-21T13:31:21.709Z,54.00
2023-06-21T13:33:50.719Z,53.50
2023-06-21T13:36:17.698Z,53.60
2023-06-21T13:38:44.702Z,55.20
2023-06-21T13:41:11.533Z,55.00
2023-06-21T13:43:38.668Z,54.00
2023-06-21T13:46:05.684Z,54.30
2023-06-21T13:48:32.791Z,55.00
2023-06-21T13:50:59.523Z,53.70
2023-06-21T13:53:27.299Z,53.70
2023-06-21T13:55:54.428Z,53.40
2023-06-21T13:58:21.919Z,54.80
2023-06-21T14:00:49.109Z,54.90
2023-06-21T14:03:16.037Z,53.70
2023-06-21T14:05:43.194Z,53.40
2023-06-21T14:08:10.004Z,53.80
2023-06-21T14:10:36.768Z,52.60
2023-06-21T14:18:03.500Z,52.70
2023-06-21T14:20:31.228Z,52.70
2023-06-21T14:22:58.318Z,51.20
2023-06-21T14:25:25.163Z,51.90
2023-06-21T14:27:52.087Z,51.80
2023-06-21T14:30:19.708Z,52.00
2023-06-21T14:32:48.322Z,51.50
2023-06-21T14:35:15.380Z,51.70
2023-06-21T14:37:44.472Z,51.50
2023-06-21T14:40:11.446Z,51.30
2023-06-21T14:42:38.217Z,50.50
2023-06-21T14:45:05.729Z,51.10
2023-06-21T14:47:32.422Z,52.20
2023-06-21T14:49:59.208Z,51.80
2023-06-21T14:52:25.966Z,50.10
2023-06-21T14:54:53.397Z,50.70
2023-06-21T14:57:21.209Z,50.20
2023-06-21T14:59:47.962Z,49.30
2023-06-21T15:02:14.872Z,47.10
2023-06-21T15:04:41.679Z,46.60
2023-06-21T15:07:10.585Z,45.80
2023-06-21T15:09:38.647Z,45.70
2023-06-21T15:12:07.278Z,46.30
2023-06-21T15:14:35.351Z,45.10
2023-06-21T15:17:02.077Z,45.40
2023-06-21T15:19:28.829Z,45.60
2023-06-21T15:21:55.851Z,47.00
2023-06-21T15:24:22.605Z,48.20
2023-06-21T15:26:49.423Z,48.80
2023-06-21T15:29:16.130Z,48.70
2023-06-21T15:31:43.251Z,48.80
2023-06-21T15:34:11.836Z,49.10
2023-06-21T15:36:39.720Z,49.30
2023-06-21T15:39:08.230Z,48.70
2023-06-21T15:41:39.895Z,47.80
2023-06-21T15:44:06.871Z,48.20
2023-06-21T15:46:34.393Z,47.90
2023-06-21T15:49:01.842Z,47.40
2023-06-21T15:51:28.843Z,47.80
2023-06-21T15:53:57.399Z,48.10
2023-06-21T15:56:25.844Z,47.10
2023-06-21T15:58:53.396Z,47.90
2023-06-21T16:01:21.678Z,47.20
2023-06-21T16:03:49.376Z,46.10
2023-06-21T16:06:16.887Z,46.40
2023-06-21T16:08:44.005Z,45.50
2023-06-21T16:11:12.426Z,45.30
2023-06-21T16:13:46.309Z,44.60
2023-06-21T16:16:14.621Z,43.90
2023-06-21T16:18:41.510Z,44.30
2023-06-21T16:21:08.443Z,44.90
2023-06-21T16:23:36.470Z,44.40
2023-06-21T16:26:03.859Z,44.10
2023-06-21T16:28:31.350Z,44.40
2023-06-21T16:30:58.221Z,44.70
2023-06-21T16:33:24.941Z,44.30
2023-06-21T16:35:51.902Z,44.00
2023-06-21T16:38:21.455Z,43.00
2023-06-21T16:40:48.214Z,43.70
2023-06-21T16:43:15.658Z,44.10
2023-06-21T16:45:42.455Z,43.90
2023-06-21T16:48:09.635Z,43.90
2023-06-21T16:50:36.440Z,44.10
2023-06-21T16:53:03.319Z,43.40
2023-06-21T16:55:30.767Z,44.00
2023-06-21T16:57:59.122Z,44.70
2023-06-21T17:00:26.299Z,44.80
2023-06-21T17:02:54.482Z,45.30
2023-06-21T17:05:25.324Z,45.80
2023-06-21T17:07:53.083Z,45.60
2023-06-21T17:10:21.938Z,45.70
2023-06-21T17:12:49.036Z,45.80
2023-06-21T17:15:15.878Z,45.50
2023-06-21T17:17:43.544Z,46.00
2023-06-21T17:20:11.167Z,45.60
2023-06-21T17:22:38.106Z,45.90
2023-06-21T17:25:05.420Z,44.90
2023-06-21T17:27:32.144Z,45.40
2023-06-21T17:29:59.125Z,45.80
2023-06-21T17:32:26.379Z,45.30
2023-06-21T17:34:53.287Z,45.70
2023-06-21T17:37:20.071Z,46.30
2023-06-21T17:39:47.518Z,46.20
2023-06-21T17:42:15.417Z,45.90
2023-06-21T17:44:43.044Z,46.40
2023-06-21T17:47:09.982Z,46.30
2023-06-21T17:49:36.774Z,46.30
2023-06-21T17:52:03.790Z,46.10
2023-06-21T17:54:30.515Z,45.60
2023-06-21T17:56:57.398Z,45.30
2023-06-21T17:59:24.134Z,45.90
2023-06-21T18:01:51.218Z,46.50
2023-06-21T18:04:18.249Z,46.20
2023-06-21T18:06:45.513Z,46.30
2023-06-21T18:09:12.306Z,45.80
2023-06-21T18:11:42.067Z,46.50
2023-06-21T18:14:08.781Z,46.90
2023-06-21T18:16:35.509Z,47.20
2023-06-21T18:19:02.555Z,47.00
2023-06-21T18:21:29.291Z,46.80
2023-06-21T18:23:56.065Z,46.60
2023-06-21T18:26:22.829Z,46.90
2023-06-21T18:28:49.676Z,47.10
2023-06-21T18:31:18.212Z,47.10
2023-06-21T18:33:44.909Z,47.20
2023-06-21T18:36:11.698Z,47.00
2023-06-21T18:38:38.493Z,46.90
2023-06-21T18:41:05.303Z,48.20
2023-06-21T18:43:32.104Z,47.50
2023-06-21T18:45:58.906Z,47.60
2023-06-21T18:48:26.647Z,48.10
2023-06-21T18:50:53.348Z,48.40
2023-06-21T18:53:23.499Z,48.50
2023-06-21T18:55:50.182Z,48.40
2023-06-21T18:58:18.022Z,47.80
2023-06-21T19:00:44.811Z,48.10
2023-06-21T19:03:11.793Z,48.20
2023-06-21T19:05:38.620Z,48.70
2023-06-21T19:08:05.299Z,49.50
2023-06-21T19:10:32.164Z,49.40
2023-06-21T19:12:58.915Z,49.30
2023-06-21T19:15:25.716Z,49.00
2023-06-21T19:17:52.525Z,49.00
2023-06-21T19:20:19.392Z,49.60
2023-06-21T19:22:46.329Z,49.60
2023-06-21T19:25:13.279Z,50.00
2023-06-21T19:27:40.158Z,49.70
2023-06-21T19:30:07.705Z,50.00
2023-06-21T19:32:34.460Z,50.40
2023-06-21T19:35:01.325Z,48.90
2023-06-21T19:37:28.045Z,49.30
2023-06-21T19:39:54.828Z,49.00
2023-06-21T19:42:23.345Z,49.60
2023-06-21T19:44:50.143Z,49.70
2023-06-21T19:47:16.907Z,49.70
2023-06-21T19:49:45.913Z,49.60
2023-06-21T19:52:16.081Z,50.70
2023-06-21T19:54:42.792Z,50.40
2023-06-21T19:57:09.525Z,50.30
2023-06-21T19:59:36.192Z,50.40
2023-06-21T20:02:03.455Z,50.60
2023-06-21T20:04:30.176Z,50.60
2023-06-21T20:06:57.954Z,50.90
2023-06-21T20:09:24.683Z,50.70
2023-06-21T20:11:51.483Z,50.90
2023-06-21T20:14:18.345Z,51.30
2023-06-21T20:16:45.858Z,51.40
2023-06-21T20:19:15.724Z,51.20
2023-06-21T20:21:42.625Z,51.10
2023-06-21T20:24:09.414Z,51.10
2023-06-21T20:26:36.525Z,51.40
2023-06-21T20:29:04.426Z,51.60
2023-06-21T20:31:31.339Z,51.70
2023-06-21T20:33:58.056Z,51.50
2023-06-21T20:36:24.798Z,51.40
2023-06-21T20:38:51.527Z,51.20
2023-06-21T20:41:18.387Z,51.10
2023-06-21T20:43:45.243Z,51.50
2023-06-21T20:46:17.061Z,51.70
2023-06-21T20:48:44.273Z,51.30
2023-06-21T20:51:10.994Z,51.00
2023-06-21T20:53:37.725Z,51.20
2023-06-21T20:56:04.718Z,51.30
2023-06-21T20:58:34.326Z,51.20
2023-06-21T21:01:01.230Z,51.40
2023-06-21T21:03:28.312Z,51.60
2023-06-21T21:05:56.385Z,51.70
2023-06-21T21:08:23.134Z,51.80
2023-06-21T21:10:49.896Z,52.00
2023-06-21T21:13:16.594Z,52.00
2023-06-21T21:15:43.438Z,52.20
2023-06-21T21:18:10.235Z,52.40
2023-06-21T21:20:39.411Z,52.30
2023-06-21T21:23:08.246Z,52.50
2023-06-21T21:25:35.210Z,52.50
2023-06-21T21:28:02.122Z,52.80
2023-06-21T21:30:29.135Z,52.90
2023-06-21T21:32:58.492Z,52.80
2023-06-21T21:35:25.510Z,52.80
2023-06-21T21:37:52.394Z,52.90
2023-06-21T21:40:19.633Z,52.90
2023-06-21T21:42:46.497Z,53.30
2023-06-21T21:45:13.350Z,53.10
2023-06-21T21:47:40.122Z,53.00
2023-06-21T21:50:07.713Z,52.90
2023-06-21T21:52:34.599Z,53.00
2023-06-21T21:55:01.630Z,53.10
2023-06-21T21:57:28.339Z,53.20
2023-06-21T21:59:55.128Z,53.40
2023-06-21T22:02:21.988Z,53.30
2023-06-21T22:04:50.399Z,53.40
2023-06-21T22:07:17.430Z,53.70
2023-06-21T22:09:44.252Z,53.50
2023-06-21T22:12:12.958Z,53.60
2023-06-21T22:14:41.714Z,53.50
2023-06-21T22:17:08.934Z,53.60
2023-06-21T22:19:35.740Z,53.70
2023-06-21T22:22:02.856Z,53.70
2023-06-21T22:24:29.874Z,53.80
2023-06-21T22:26:56.683Z,53.80
2023-06-21T22:29:24.688Z,53.90
2023-06-21T22:31:51.479Z,54.40
2023-06-21T22:34:20.555Z,54.10
2023-06-21T22:36:47.589Z,54.00
2023-06-21T22:39:14.716Z,54.00
2023-06-21T22:51:36.293Z,54.20
2023-06-21T22:54:03.972Z,54.20
2023-06-21T22:56:30.813Z,54.00
2023-06-21T22:58:57.688Z,54.00
2023-06-21T23:01:24.931Z,54.10
2023-06-21T23:03:51.853Z,54.20
2023-06-21T23:06:19.176Z,54.30
2023-06-21T23:08:46.683Z,54.30
2023-06-21T23:11:14.995Z,54.30
2023-06-21T23:13:42.181Z,54.30
2023-06-21T23:16:10.453Z,54.20
2023-06-21T23:18:38.664Z,54.30
